createdAt,value
2019-03-09T00:01:54.699Z,100280.92
2019-03-09T00:04:25.186Z,100275.20
2019-03-09T00:06:55.640Z,100268.66
2019-03-09T00:09:26.108Z,100263.18
2019-03-09T00:11:56.676Z,100249.70
2019-03-09T00:14:27.187Z,100248.88
2019-03-09T00:16:57.668Z,100240.87
2019-03-09T00:19:28.198Z,100239.09
2019-03-09T00:21:58.685Z,100225.16
2019-03-09T00:24:47.239Z,100216.71
2019-03-09T00:27:39.213Z,100206.69
2019-03-09T00:30:28.081Z,100204.17
2019-03-09T00:32:58.660Z,100202.74
2019-03-09T00:35:29.151Z,100195.25
2019-03-09T00:37:59.713Z,100184.75
2019-03-09T00:40:30.176Z,100190.58
2019-03-09T00:43:00.624Z,100170.58
2019-03-09T00:45:31.158Z,100165.06
2019-03-09T00:48:01.627Z,100169.50
2019-03-09T00:50:32.250Z,100166.27
2019-03-09T00:53:02.695Z,100146.13
2019-03-09T00:55:33.182Z,100157.91
2019-03-09T00:58:03.671Z,100151.45
2019-03-09T01:00:34.181Z,100144.90
2019-03-09T01:03:04.721Z,100137.95
2019-03-09T01:05:35.196Z,100139.88
2019-03-09T01:08:05.772Z,100134.52
2019-03-09T01:10:36.224Z,100121.05
2019-03-09T01:13:06.733Z,100115.08
2019-03-09T01:15:37.264Z,100116.27
2019-03-09T01:18:07.775Z,100108.59
2019-03-09T01:20:38.254Z,100094.65
2019-03-09T01:23:08.811Z,100084.11
2019-03-09T01:25:39.287Z,100085.82
2019-03-09T01:28:09.750Z,100075.44
2019-03-09T01:30:40.286Z,100083.47
2019-03-09T01:33:10.817Z,100061.28
2019-03-09T01:35:41.318Z,100056.39
2019-03-09T01:38:11.833Z,100038.53
2019-03-09T01:40:42.375Z,100048.69
2019-03-09T01:43:12.829Z,100030.25
2019-03-09T01:45:43.375Z,100024.77
2019-03-09T01:48:13.865Z,100023.35
2019-03-09T01:50:44.385Z,100013.36
2019-03-09T01:53:14.849Z,99997.17
2019-03-09T01:55:45.329Z,99984.91
2019-03-09T01:58:15.813Z,99981.29
2019-03-09T02:00:46.472Z,99962.86
2019-03-09T02:03:16.944Z,99972.03
2019-03-09T02:05:47.503Z,99957.00
2019-03-09T02:08:18.009Z,99946.05
2019-03-09T02:10:48.467Z,99940.80
2019-03-09T02:13:18.953Z,99936.36
2019-03-09T02:15:49.488Z,99926.62
2019-03-09T02:18:19.954Z,99920.16
2019-03-09T02:20:50.465Z,99909.33
2019-03-09T02:23:20.974Z,99913.05
2019-03-09T02:25:51.454Z,99896.72
2019-03-09T02:28:21.927Z,99893.27
2019-03-09T02:30:52.439Z,99883.70
2019-03-09T02:33:22.926Z,99875.49
2019-03-09T02:35:53.411Z,99868.25
2019-03-09T02:38:36.065Z,99858.61
2019-03-09T02:41:06.543Z,99857.75
2019-03-09T02:43:36.940Z,99851.55
2019-03-09T02:46:07.461Z,99839.06
2019-03-09T02:48:38.158Z,99834.47
2019-03-09T02:51:08.681Z,99815.28
2019-03-09T02:53:39.193Z,99805.64
2019-03-09T02:56:09.683Z,99805.88
2019-03-09T02:58:40.152Z,99789.59
2019-03-09T03:01:32.479Z,99780.44
2019-03-09T03:04:03.005Z,99779.05
2019-03-09T03:06:33.451Z,99773.77
2019-03-09T03:09:05.396Z,99759.02
2019-03-09T03:11:37.387Z,99753.61
2019-03-09T03:14:08.091Z,99745.87
2019-03-09T03:16:38.609Z,99730.27
2019-03-09T03:19:09.198Z,99724.06
2019-03-09T03:21:39.689Z,99725.38
2019-03-09T03:24:10.197Z,99707.39
2019-03-09T03:26:40.670Z,99703.12
2019-03-09T03:29:11.123Z,99691.74
2019-03-09T03:31:41.660Z,99666.45
2019-03-09T03:34:12.117Z,99655.52
2019-03-09T03:36:42.611Z,99649.32
2019-03-09T03:39:13.094Z,99631.61
2019-03-09T03:41:43.573Z,99630.30
2019-03-09T03:44:14.059Z,99618.52
2019-03-09T03:46:44.553Z,99605.83
2019-03-09T03:49:15.054Z,99599.75
2019-03-09T03:51:45.555Z,99592.30
2019-03-09T03:54:16.060Z,99584.38
2019-03-09T03:56:47.528Z,99576.18
2019-03-09T03:59:20.104Z,99562.40
2019-03-09T04:01:50.626Z,99555.66
2019-03-09T04:04:21.086Z,99547.71
2019-03-09T04:06:51.725Z,99547.33
2019-03-09T04:09:22.737Z,99532.42
2019-03-09T04:11:53.380Z,99517.09
2019-03-09T04:14:23.954Z,99512.61
2019-03-09T04:16:54.530Z,99511.05
2019-03-09T04:19:25.046Z,99505.73
2019-03-09T04:21:55.548Z,99502.09
2019-03-09T04:24:26.097Z,99501.59
2019-03-09T04:26:56.585Z,99483.13
2019-03-09T04:29:27.132Z,99475.69
2019-03-09T04:31:57.652Z,99467.36
2019-03-09T04:34:28.175Z,99463.81
2019-03-09T04:37:02.749Z,99458.78
2019-03-09T04:39:33.249Z,99457.56
2019-03-09T04:42:03.767Z,99461.70
2019-03-09T04:44:34.407Z,99458.32
2019-03-09T04:47:04.911Z,99435.70
2019-03-09T04:49:35.400Z,99440.69
2019-03-09T04:52:05.955Z,99446.34
2019-03-09T04:54:36.542Z,99448.70
2019-03-09T04:57:07.030Z,99453.43
2019-03-09T04:59:37.541Z,99443.28
2019-03-09T05:02:08.059Z,99451.22
2019-03-09T05:04:54.195Z,99452.27
2019-03-09T05:08:02.189Z,99447.30
2019-03-09T05:10:47.354Z,99452.69
2019-03-09T05:13:23.367Z,99439.84
2019-03-09T05:15:53.882Z,99449.56
2019-03-09T05:18:24.397Z,99458.69
2019-03-09T05:20:54.839Z,99486.78
2019-03-09T05:23:25.343Z,99481.20
2019-03-09T05:25:55.865Z,99463.25
2019-03-09T05:28:26.310Z,99466.22
2019-03-09T05:30:56.807Z,99471.73
2019-03-09T05:33:27.336Z,99473.25
2019-03-09T05:35:57.867Z,99470.20
2019-03-09T05:38:28.303Z,99455.30
2019-03-09T05:40:58.836Z,99449.31
2019-03-09T05:43:29.357Z,99448.60
2019-03-09T05:45:59.896Z,99441.06
2019-03-09T05:48:30.460Z,99449.78
2019-03-09T05:51:00.965Z,99450.62
2019-03-09T05:53:31.462Z,99458.59
2019-03-09T05:56:02.030Z,99463.23
2019-03-09T05:58:32.599Z,99469.25
2019-03-09T06:01:03.139Z,99473.66
2019-03-09T06:03:33.591Z,99465.98
2019-03-09T06:06:08.577Z,99472.98
2019-03-09T06:08:39.334Z,99467.30
2019-03-09T06:11:09.864Z,99486.51
2019-03-09T06:13:40.540Z,99469.32
2019-03-09T06:16:11.035Z,99479.27
2019-03-09T06:18:41.557Z,99473.86
2019-03-09T06:21:12.044Z,99480.86
2019-03-09T06:23:42.543Z,99467.80
2019-03-09T06:26:13.058Z,99480.84
2019-03-09T06:28:43.623Z,99483.00
2019-03-09T06:31:14.069Z,99482.63
2019-03-09T06:33:47.304Z,99491.20
2019-03-09T06:37:11.978Z,99494.80
2019-03-09T06:39:51.888Z,99495.41
2019-03-09T06:42:51.503Z,99500.11
2019-03-09T06:45:22.169Z,99503.78
2019-03-09T06:47:52.682Z,99509.70
2019-03-09T06:50:23.597Z,99528.01
2019-03-09T06:52:54.160Z,99516.34
2019-03-09T06:55:24.827Z,99515.83
2019-03-09T06:57:55.424Z,99537.87
2019-03-09T07:00:40.861Z,99532.36
2019-03-09T07:03:12.406Z,99555.00
2019-03-09T07:05:42.902Z,99553.27
2019-03-09T07:08:13.406Z,99562.45
2019-03-09T07:10:44.033Z,99578.95
2019-03-09T07:13:14.577Z,99577.22
2019-03-09T07:15:46.797Z,99587.84
2019-03-09T07:18:23.054Z,99598.20
2019-03-09T07:20:53.573Z,99583.10
2019-03-09T07:23:24.062Z,99591.09
2019-03-09T07:25:54.688Z,99570.45
2019-03-09T07:28:25.181Z,99587.25
2019-03-09T07:30:55.692Z,99588.77
2019-03-09T07:33:26.232Z,99582.00
2019-03-09T07:35:56.713Z,99606.84
2019-03-09T07:38:27.399Z,99588.84
2019-03-09T07:40:58.008Z,99592.41
2019-03-09T07:43:28.555Z,99638.48
2019-03-09T07:45:59.097Z,99625.52
2019-03-09T07:48:29.608Z,99608.20
2019-03-09T07:51:00.080Z,99621.66
2019-03-09T07:53:30.599Z,99636.36
2019-03-09T07:56:01.083Z,99626.20
2019-03-09T07:58:31.586Z,99624.81
2019-03-09T08:01:02.120Z,99638.09
2019-03-09T08:03:32.696Z,99628.64
2019-03-09T08:06:03.218Z,99639.09
2019-03-09T08:08:33.621Z,99625.52
2019-03-09T08:11:04.175Z,99631.67
2019-03-09T08:13:34.653Z,99639.16
2019-03-09T08:16:05.194Z,99650.97
2019-03-09T08:18:35.732Z,99643.84
2019-03-09T08:21:06.198Z,99640.67
2019-03-09T08:23:36.659Z,99638.66
2019-03-09T08:26:07.181Z,99633.06
2019-03-09T08:28:37.671Z,99638.95
2019-03-09T08:31:08.137Z,99645.80
2019-03-09T08:33:38.696Z,99667.97
2019-03-09T08:36:09.235Z,99644.73
2019-03-09T08:38:39.802Z,99654.70
2019-03-09T08:41:10.434Z,99645.60
2019-03-09T08:43:41.135Z,99651.63
2019-03-09T08:46:11.641Z,99656.88
2019-03-09T08:48:42.276Z,99662.80
2019-03-09T08:51:12.782Z,99690.43
2019-03-09T08:53:43.306Z,99681.61
2019-03-09T08:56:13.884Z,99690.20
2019-03-09T08:58:44.358Z,99696.80
2019-03-09T09:01:14.826Z,99694.17
2019-03-09T09:03:45.466Z,99701.66
2019-03-09T09:06:15.919Z,99697.89
2019-03-09T09:08:46.412Z,99702.55
2019-03-09T09:11:16.962Z,99704.98
2019-03-09T09:13:47.444Z,99693.80
2019-03-09T09:16:17.943Z,99704.20
2019-03-09T09:18:48.522Z,99709.04
2019-03-09T09:21:19.077Z,99718.56
2019-03-09T09:23:49.622Z,99698.86
2019-03-09T09:26:20.218Z,99725.41
2019-03-09T09:28:50.693Z,99728.31
2019-03-09T09:31:21.204Z,99728.96
2019-03-09T09:33:51.770Z,99752.94
2019-03-09T09:36:22.348Z,99727.78
2019-03-09T09:38:52.880Z,99747.15
2019-03-09T09:41:23.417Z,99738.84
2019-03-09T09:43:53.938Z,99728.16
2019-03-09T09:46:24.463Z,99725.67
2019-03-09T09:48:55.023Z,99760.69
2019-03-09T09:51:25.547Z,99764.64
2019-03-09T09:53:56.090Z,99766.42
2019-03-09T09:56:27.690Z,99780.59
2019-03-09T09:58:58.174Z,99781.77
2019-03-09T10:01:28.702Z,99764.17
2019-03-09T10:03:59.206Z,99768.70
2019-03-09T10:06:29.731Z,99757.81
2019-03-09T10:09:00.199Z,99785.23
2019-03-09T10:11:30.815Z,99796.45
2019-03-09T10:14:01.313Z,99775.91
2019-03-09T10:16:31.846Z,99787.91
2019-03-09T10:19:02.416Z,99790.91
2019-03-09T10:21:32.920Z,99791.75
2019-03-09T10:24:03.440Z,99783.20
2019-03-09T10:26:33.959Z,99824.17
2019-03-09T10:29:04.606Z,99789.21
2019-03-09T10:31:35.178Z,99780.78
2019-03-09T10:34:05.781Z,99801.08
2019-03-09T10:36:36.280Z,99817.80
2019-03-09T10:39:07.763Z,99811.72
2019-03-09T10:41:38.309Z,99817.22
2019-03-09T10:44:08.840Z,99805.45
2019-03-09T10:46:39.311Z,99813.23
2019-03-09T10:49:09.928Z,99829.09
2019-03-09T10:51:40.455Z,99810.88
2019-03-09T10:54:10.947Z,99811.35
2019-03-09T10:56:41.478Z,99806.87
2019-03-09T10:59:12.030Z,99824.51
2019-03-09T11:01:42.591Z,99820.28
2019-03-09T11:04:13.135Z,99819.16
2019-03-09T11:06:43.663Z,99822.34
2019-03-09T11:09:14.158Z,99839.75
2019-03-09T11:11:44.734Z,99834.86
2019-03-09T11:14:15.239Z,99839.72
2019-03-09T11:16:45.941Z,99850.67
2019-03-09T11:19:16.571Z,99857.27
2019-03-09T11:21:47.096Z,99862.45
2019-03-09T11:24:17.558Z,99850.89
2019-03-09T11:26:48.106Z,99845.55
2019-03-09T11:29:18.848Z,99853.59
2019-03-09T11:31:49.440Z,99847.07
2019-03-09T11:34:20.015Z,99848.69
2019-03-09T11:36:50.441Z,99846.28
2019-03-09T11:39:20.973Z,99832.79
2019-03-09T11:41:51.530Z,99834.36
2019-03-09T11:44:22.249Z,99835.38
2019-03-09T11:46:52.720Z,99832.19
2019-03-09T11:49:23.410Z,99831.16
2019-03-09T11:51:53.937Z,99842.16
2019-03-09T11:54:24.510Z,99839.86
2019-03-09T11:56:55.017Z,99838.72
2019-03-09T11:59:25.547Z,99838.21
2019-03-09T12:01:56.113Z,99833.09
2019-03-09T12:04:26.689Z,99830.14
2019-03-09T12:06:57.206Z,99835.31
2019-03-09T12:09:27.757Z,99831.68
2019-03-09T12:12:03.217Z,99817.34
2019-03-09T12:14:33.725Z,99808.75
2019-03-09T12:17:04.257Z,99810.17
2019-03-09T12:19:34.777Z,99813.62
2019-03-09T12:22:05.307Z,99810.53
2019-03-09T12:24:35.893Z,99806.14
2019-03-09T12:27:06.417Z,99806.77
2019-03-09T12:29:36.962Z,99800.38
2019-03-09T12:32:07.459Z,99801.91
2019-03-09T12:34:37.946Z,99804.07
2019-03-09T12:37:08.437Z,99807.56
2019-03-09T12:39:38.986Z,99798.77
2019-03-09T12:42:09.545Z,99802.56
2019-03-09T12:44:40.119Z,99801.49
2019-03-09T12:47:10.657Z,99800.20
2019-03-09T12:49:41.290Z,99792.81
2019-03-09T12:52:11.861Z,99790.79
2019-03-09T12:54:42.404Z,99788.91
2019-03-09T12:57:12.933Z,99783.76
2019-03-09T12:59:43.455Z,99790.31
2019-03-09T13:02:13.940Z,99791.57
2019-03-09T13:04:44.459Z,99788.68
2019-03-09T13:07:14.901Z,99779.27
2019-03-09T13:09:45.389Z,99782.77
2019-03-09T13:12:15.903Z,99782.10
2019-03-09T13:14:46.549Z,99780.87
2019-03-09T13:17:17.042Z,99773.53
2019-03-09T13:19:47.729Z,99762.70
2019-03-09T13:22:18.230Z,99760.81
2019-03-09T13:24:48.799Z,99754.11
2019-03-09T13:27:19.326Z,99746.41
2019-03-09T13:29:49.806Z,99740.02
2019-03-09T13:32:20.307Z,99741.56
2019-03-09T13:34:50.749Z,99739.64
2019-03-09T13:37:21.265Z,99736.50
2019-03-09T13:39:51.785Z,99722.77
2019-03-09T13:42:22.283Z,99727.89
2019-03-09T13:44:52.786Z,99725.97
2019-03-09T13:47:23.272Z,99724.51
2019-03-09T13:49:53.874Z,99720.51
2019-03-09T13:52:24.458Z,99710.16
2019-03-09T13:54:55.022Z,99717.59
2019-03-09T13:57:25.602Z,99714.02
2019-03-09T13:59:56.245Z,99705.61
2019-03-09T14:02:26.749Z,99691.62
2019-03-09T14:04:57.295Z,99680.00
2019-03-09T14:07:27.992Z,99670.97
2019-03-09T14:09:58.519Z,99678.97
2019-03-09T14:12:29.071Z,99665.98
2019-03-09T14:14:59.610Z,99666.27
2019-03-09T14:17:30.145Z,99670.89
2019-03-09T14:20:00.728Z,99665.57
2019-03-09T14:22:31.273Z,99667.36
2019-03-09T14:25:01.955Z,99653.47
2019-03-09T14:27:32.465Z,99656.91
2019-03-09T14:30:02.975Z,99640.59
2019-03-09T14:32:33.497Z,99628.22
2019-03-09T14:35:04.307Z,99622.05
2019-03-09T14:37:34.779Z,99618.16
2019-03-09T14:40:05.588Z,99605.03
2019-03-09T14:42:36.127Z,99602.39
2019-03-09T14:45:10.144Z,99585.63
2019-03-09T14:47:40.698Z,99580.08
2019-03-09T14:50:11.343Z,99566.66
2019-03-09T14:52:41.892Z,99565.99
2019-03-09T14:55:12.469Z,99565.48
2019-03-09T14:57:42.959Z,99568.15
2019-03-09T15:00:17.453Z,99564.86
2019-03-09T15:02:47.968Z,99552.26
2019-03-09T15:05:18.486Z,99546.30
2019-03-09T15:07:48.990Z,99557.16
2019-03-09T15:10:19.497Z,99543.95
2019-03-09T15:12:52.050Z,99534.05
2019-03-09T15:15:22.607Z,99526.83
2019-03-09T15:17:53.218Z,99512.99
2019-03-09T15:20:23.692Z,99498.14
2019-03-09T15:22:54.201Z,99497.45
2019-03-09T15:25:24.670Z,99480.11
2019-03-09T15:27:55.180Z,99477.27
2019-03-09T15:30:25.724Z,99467.23
2019-03-09T15:32:56.222Z,99456.52
2019-03-09T15:35:26.696Z,99436.14
2019-03-09T15:37:57.190Z,99430.96
2019-03-09T15:40:27.760Z,99416.00
2019-03-09T15:42:58.229Z,99409.08
2019-03-09T15:45:28.744Z,99402.47
2019-03-09T15:47:59.243Z,99401.81
2019-03-09T15:50:29.710Z,99399.66
2019-03-09T15:53:00.143Z,99385.91
2019-03-09T15:55:31.514Z,99377.92
2019-03-09T15:58:02.002Z,99373.59
2019-03-09T16:00:32.559Z,99366.38
2019-03-09T16:03:03.073Z,99359.16
2019-03-09T16:05:33.557Z,99354.38
2019-03-09T16:08:03.979Z,99354.50
2019-03-09T16:10:34.471Z,99353.84
2019-03-09T16:13:04.979Z,99357.20
2019-03-09T16:15:35.594Z,99353.45
2019-03-09T16:18:06.088Z,99364.20
2019-03-09T16:20:36.596Z,99379.58
2019-03-09T16:23:07.143Z,99363.38
2019-03-09T16:25:37.605Z,99358.96
2019-03-09T16:28:08.105Z,99367.73
2019-03-09T16:30:38.693Z,99356.64
2019-03-09T16:33:09.186Z,99355.59
2019-03-09T16:35:39.667Z,99337.30
2019-03-09T16:38:10.165Z,99343.06
2019-03-09T16:40:41.029Z,99354.80
2019-03-09T16:43:11.562Z,99340.39
2019-03-09T16:45:42.109Z,99339.08
2019-03-09T16:48:12.616Z,99353.16
2019-03-09T16:50:43.144Z,99363.31
2019-03-09T16:53:13.671Z,99365.80
2019-03-09T16:55:44.151Z,99366.27
2019-03-09T16:58:14.718Z,99366.58
2019-03-09T17:00:45.239Z,99378.07
2019-03-09T17:03:15.740Z,99367.31
2019-03-09T17:05:46.270Z,99364.92
2019-03-09T17:08:16.773Z,99364.62
2019-03-09T17:10:47.283Z,99376.09
2019-03-09T17:13:17.862Z,99372.09
2019-03-09T17:15:49.064Z,99365.06
2019-03-09T17:18:19.892Z,99373.39
2019-03-09T17:20:50.352Z,99384.86
2019-03-09T17:23:20.892Z,99393.28
2019-03-09T17:25:51.419Z,99409.35
2019-03-09T17:28:21.905Z,99407.22
2019-03-09T17:30:52.425Z,99421.11
2019-03-09T17:33:22.980Z,99446.40
2019-03-09T17:35:53.566Z,99460.43
2019-03-09T17:38:24.175Z,99461.74
2019-03-09T17:40:54.795Z,99471.80
2019-03-09T17:43:25.366Z,99478.47
2019-03-09T17:45:55.999Z,99494.82
2019-03-09T17:48:26.474Z,99527.72
2019-03-09T17:50:56.952Z,99549.27
2019-03-09T17:53:27.483Z,99602.70
2019-03-09T17:55:57.953Z,99595.17
2019-03-09T17:58:28.497Z,99567.16
2019-03-09T18:00:59.012Z,99607.30
2019-03-09T18:03:29.468Z,99617.67
2019-03-09T18:06:00.032Z,99635.17
2019-03-09T18:08:30.583Z,99657.41
2019-03-09T18:11:04.704Z,99666.56
2019-03-09T18:13:35.191Z,99673.95
2019-03-09T18:16:05.743Z,99694.05
2019-03-09T18:18:36.199Z,99699.41
2019-03-09T18:21:06.698Z,99714.38
2019-03-09T18:23:37.175Z,99719.83
2019-03-09T18:26:07.735Z,99728.73
2019-03-09T18:28:38.229Z,99747.39
2019-03-09T18:31:08.706Z,99769.73
2019-03-09T18:33:39.246Z,99772.68
2019-03-09T18:36:09.735Z,99792.86
2019-03-09T18:38:40.204Z,99809.73
2019-03-09T18:41:10.699Z,99813.30
2019-03-09T18:43:41.205Z,99813.52
2019-03-09T18:46:13.832Z,99812.68
2019-03-09T18:48:43.918Z,99830.47
2019-03-09T18:51:14.525Z,99847.59
2019-03-09T18:53:45.033Z,99866.13
2019-03-09T18:56:15.540Z,99875.38
2019-03-09T18:58:46.037Z,99889.15
2019-03-09T19:01:31.212Z,99862.70
2019-03-09T19:04:44.924Z,99885.64
2019-03-09T19:07:15.413Z,99874.95
2019-03-09T19:09:48.806Z,99882.81
2019-03-09T19:12:19.402Z,99876.08
2019-03-09T19:14:49.939Z,99877.99
2019-03-09T19:17:20.439Z,99878.50
2019-03-09T19:19:50.951Z,99886.23
2019-03-09T19:22:21.428Z,99878.27
2019-03-09T19:24:52.006Z,99864.13
2019-03-09T19:27:22.531Z,99878.60
2019-03-09T19:29:53.011Z,99868.28
2019-03-09T19:32:23.508Z,99884.20
2019-03-09T19:34:54.096Z,99882.52
2019-03-09T19:37:24.571Z,99884.30
2019-03-09T19:39:55.068Z,99883.45
2019-03-09T19:42:25.571Z,99880.52
2019-03-09T19:44:56.059Z,99894.07
2019-03-09T19:47:26.535Z,99899.55
2019-03-09T19:49:57.065Z,99890.15
2019-03-09T19:52:27.603Z,99894.32
2019-03-09T19:54:58.182Z,99888.16
2019-03-09T19:57:28.700Z,99883.86
2019-03-09T19:59:59.254Z,99881.48
2019-03-09T20:02:29.765Z,99903.27
2019-03-09T20:05:01.349Z,99905.92
2019-03-09T20:07:31.788Z,99910.55
2019-03-09T20:10:02.314Z,99913.41
2019-03-09T20:12:32.841Z,99917.34
2019-03-09T20:15:03.390Z,99922.09
2019-03-09T20:17:33.896Z,99925.90
2019-03-09T20:20:04.711Z,99935.07
2019-03-09T20:22:35.238Z,99943.64
2019-03-09T20:25:05.959Z,99929.85
2019-03-09T20:27:36.586Z,99955.30
2019-03-09T20:30:08.184Z,99947.45
2019-03-09T20:32:38.725Z,99966.11
2019-03-09T20:35:09.373Z,99982.08
2019-03-09T20:37:39.900Z,99971.49
2019-03-09T20:40:11.081Z,99969.58
2019-03-09T20:42:41.584Z,99977.41
2019-03-09T20:45:14.677Z,99989.69
2019-03-09T20:47:45.423Z,99992.67
2019-03-09T20:50:16.654Z,100004.08
2019-03-09T20:52:47.151Z,99991.94
2019-03-09T20:55:17.636Z,99995.77
2019-03-09T20:57:48.197Z,99992.55
2019-03-09T21:00:18.904Z,99992.67
2019-03-09T21:02:49.444Z,99991.35
2019-03-09T21:05:20.084Z,99986.95
2019-03-09T21:07:50.657Z,100010.16
2019-03-09T21:10:21.152Z,100000.31
2019-03-09T21:13:08.391Z,100005.05
2019-03-09T21:15:38.889Z,100010.64
2019-03-09T21:18:09.485Z,99998.62
2019-03-09T21:20:40.015Z,99994.59
2019-03-09T21:23:10.515Z,99992.79
2019-03-09T21:25:40.988Z,99986.72
2019-03-09T21:28:11.506Z,99997.89
2019-03-09T21:30:42.961Z,100016.23
2019-03-09T21:33:13.499Z,100047.67
2019-03-09T21:35:44.015Z,100081.48
2019-03-09T21:38:14.489Z,100104.06
2019-03-09T21:40:45.019Z,100086.31
2019-03-09T21:43:15.551Z,100128.03
2019-03-09T21:45:46.064Z,100071.39
2019-03-09T21:48:16.594Z,100071.68
2019-03-09T21:50:47.102Z,100084.39
2019-03-09T21:53:17.622Z,100081.27
2019-03-09T21:55:48.160Z,100079.05
2019-03-09T21:58:18.696Z,100077.65
2019-03-09T22:00:49.226Z,100081.36
2019-03-09T22:03:19.751Z,100085.20
2019-03-09T22:05:50.246Z,100090.27
2019-03-09T22:08:20.814Z,100099.57
2019-03-09T22:10:51.312Z,100095.72
2019-03-09T22:13:21.832Z,100100.44
2019-03-09T22:15:52.322Z,100102.61
2019-03-09T22:18:22.837Z,100099.34
2019-03-09T22:20:53.352Z,100095.11
2019-03-09T22:23:23.835Z,100090.02
2019-03-09T22:25:54.405Z,100092.98
2019-03-09T22:28:24.914Z,100089.95
2019-03-09T22:30:55.484Z,100107.30
2019-03-09T22:33:26.058Z,100103.56
2019-03-09T22:35:56.550Z,100097.38
2019-03-09T22:38:27.096Z,100088.58
2019-03-09T22:40:57.661Z,100097.23
2019-03-09T22:43:28.155Z,100082.14
2019-03-09T22:45:59.695Z,100100.09
2019-03-09T22:48:30.810Z,100093.06
2019-03-09T22:51:01.303Z,100093.06
2019-03-09T22:53:31.826Z,100075.92
2019-03-09T22:56:02.347Z,100085.36
2019-03-09T22:58:32.840Z,100092.92
2019-03-09T23:01:03.962Z,100086.77
2019-03-09T23:03:34.584Z,100098.90
2019-03-09T23:06:05.086Z,100089.84
2019-03-09T23:08:35.563Z,100079.17
2019-03-09T23:11:06.064Z,100079.91
2019-03-09T23:13:36.593Z,100089.03
2019-03-09T23:16:07.140Z,100094.16
2019-03-09T23:18:37.649Z,100096.81
2019-03-09T23:21:08.143Z,100104.16
2019-03-09T23:23:38.611Z,100106.28
2019-03-09T23:26:09.123Z,100116.75
2019-03-09T23:28:47.795Z,100125.16
2019-03-09T23:31:18.334Z,100118.84
2019-03-09T23:33:48.792Z,100117.42
2019-03-09T23:36:19.284Z,100121.76
2019-03-09T23:38:49.830Z,100134.98
2019-03-09T23:41:20.359Z,100122.16
2019-03-09T23:43:50.809Z,100126.82
2019-03-09T23:46:21.327Z,100137.89
2019-03-09T23:48:52.027Z,100148.81
2019-03-09T23:51:22.528Z,100145.34
2019-03-09T23:53:53.039Z,100150.11
2019-03-09T23:56:23.535Z,100146.19
2019-03-09T23:58:53.986Z,100144.84
